sensor_id;sensor_type;location;lat;lon;timestamp;temperature;humidity
76040;SHT30;64736;50.462;4.850;2022-12-11T00:00:16;1.31;83.72
76040;SHT30;64736;50.462;4.850;2022-12-11T00:02:41;1.36;84.19
76040;SHT30;64736;50.462;4.850;2022-12-11T00:05:07;1.45;84.21
76040;SHT30;64736;50.462;4.850;2022-12-11T00:07:33;1.42;83.77
76040;SHT30;64736;50.462;4.850;2022-12-11T00:09:59;1.36;83.75
76040;SHT30;64736;50.462;4.850;2022-12-11T00:12:24;1.35;84.19
76040;SHT30;64736;50.462;4.850;2022-12-11T00:14:50;1.32;84.10
76040;SHT30;64736;50.462;4.850;2022-12-11T00:17:15;1.29;83.75
76040;SHT30;64736;50.462;4.850;2022-12-11T00:19:41;1.26;84.15
76040;SHT30;64736;50.462;4.850;2022-12-11T00:22:06;1.25;83.49
76040;SHT30;64736;50.462;4.850;2022-12-11T00:24:32;1.14;84.03
76040;SHT30;64736;50.462;4.850;2022-12-11T00:26:57;1.16;83.89
76040;SHT30;64736;50.462;4.850;2022-12-11T00:29:23;1.14;83.80
76040;SHT30;64736;50.462;4.850;2022-12-11T00:31:49;1.21;83.50
76040;SHT30;64736;50.462;4.850;2022-12-11T00:34:14;1.09;83.85
76040;SHT30;64736;50.462;4.850;2022-12-11T00:36:40;0.99;83.81
76040;SHT30;64736;50.462;4.850;2022-12-11T00:39:05;1.14;83.35
76040;SHT30;64736;50.462;4.850;2022-12-11T00:41:31;1.19;83.29
76040;SHT30;64736;50.462;4.850;2022-12-11T00:43:57;1.16;83.45
76040;SHT30;64736;50.462;4.850;2022-12-11T00:46:23;1.18;83.61
76040;SHT30;64736;50.462;4.850;2022-12-11T00:48:48;1.22;83.37
76040;SHT30;64736;50.462;4.850;2022-12-11T00:51:15;1.31;83.61
76040;SHT30;64736;50.462;4.850;2022-12-11T00:53:41;1.36;83.19
76040;SHT30;64736;50.462;4.850;2022-12-11T00:56:10;1.35;83.21
76040;SHT30;64736;50.462;4.850;2022-12-11T00:58:36;1.32;83.26
76040;SHT30;64736;50.462;4.850;2022-12-11T01:01:10;1.31;83.38
76040;SHT30;64736;50.462;4.850;2022-12-11T01:03:37;1.36;83.38
76040;SHT30;64736;50.462;4.850;2022-12-11T01:06:03;1.31;84.12
76040;SHT30;64736;50.462;4.850;2022-12-11T01:08:29;1.38;83.65
76040;SHT30;64736;50.462;4.850;2022-12-11T01:11:06;1.39;83.71
76040;SHT30;64736;50.462;4.850;2022-12-11T01:13:33;1.34;83.48
76040;SHT30;64736;50.462;4.850;2022-12-11T01:15:59;1.25;83.73
76040;SHT30;64736;50.462;4.850;2022-12-11T01:18:25;1.18;84.27
76040;SHT30;64736;50.462;4.850;2022-12-11T01:20:50;1.21;84.33
76040;SHT30;64736;50.462;4.850;2022-12-11T01:23:17;1.07;84.09
76040;SHT30;64736;50.462;4.850;2022-12-11T01:25:42;1.09;84.24
76040;SHT30;64736;50.462;4.850;2022-12-11T01:28:09;1.05;84.34
76040;SHT30;64736;50.462;4.850;2022-12-11T01:30:36;0.91;84.51
76040;SHT30;64736;50.462;4.850;2022-12-11T01:33:02;0.84;84.84
76040;SHT30;64736;50.462;4.850;2022-12-11T01:35:28;0.87;84.62
76040;SHT30;64736;50.462;4.850;2022-12-11T01:37:54;0.81;84.73
76040;SHT30;64736;50.462;4.850;2022-12-11T01:40:20;0.83;84.43
76040;SHT30;64736;50.462;4.850;2022-12-11T01:42:46;0.81;84.93
76040;SHT30;64736;50.462;4.850;2022-12-11T01:47:48;0.80;84.95
76040;SHT30;64736;50.462;4.850;2022-12-11T01:50:14;0.85;84.73
76040;SHT30;64736;50.462;4.850;2022-12-11T01:52:42;0.85;84.86
76040;SHT30;64736;50.462;4.850;2022-12-11T01:55:09;0.78;84.65
76040;SHT30;64736;50.462;4.850;2022-12-11T01:57:41;0.84;84.68
76040;SHT30;64736;50.462;4.850;2022-12-11T02:00:08;0.91;84.37
76040;SHT30;64736;50.462;4.850;2022-12-11T02:02:34;0.92;84.52
76040;SHT30;64736;50.462;4.850;2022-12-11T02:05:02;0.95;84.04
76040;SHT30;64736;50.462;4.850;2022-12-11T02:07:32;1.01;84.37
76040;SHT30;64736;50.462;4.850;2022-12-11T02:10:01;0.99;83.83
76040;SHT30;64736;50.462;4.850;2022-12-11T02:12:34;0.99;84.16
76040;SHT30;64736;50.462;4.850;2022-12-11T02:28:58;1.14;84.16
76040;SHT30;64736;50.462;4.850;2022-12-11T02:31:43;1.18;83.66
76040;SHT30;64736;50.462;4.850;2022-12-11T02:34:42;1.05;83.95
76040;SHT30;64736;50.462;4.850;2022-12-11T02:37:15;0.99;84.11
76040;SHT30;64736;50.462;4.850;2022-12-11T02:39:45;1.08;84.18
76040;SHT30;64736;50.462;4.850;2022-12-11T02:42:13;1.08;83.92
76040;SHT30;64736;50.462;4.850;2022-12-11T02:44:41;1.04;84.38
76040;SHT30;64736;50.462;4.850;2022-12-11T02:47:12;1.04;84.64
76040;SHT30;64736;50.462;4.850;2022-12-11T02:49:41;1.14;84.37
76040;SHT30;64736;50.462;4.850;2022-12-11T02:52:11;1.08;84.13
76040;SHT30;64736;50.462;4.850;2022-12-11T02:54:40;1.14;84.15
76040;SHT30;64736;50.462;4.850;2022-12-11T02:57:37;1.15;84.37
76040;SHT30;64736;50.462;4.850;2022-12-11T03:00:07;1.14;84.45
76040;SHT30;64736;50.462;4.850;2022-12-11T03:02:33;1.11;84.58
76040;SHT30;64736;50.462;4.850;2022-12-11T03:04:59;1.09;84.53
76040;SHT30;64736;50.462;4.850;2022-12-11T03:07:27;1.09;84.87
76040;SHT30;64736;50.462;4.850;2022-12-11T03:09:54;1.12;84.66
76040;SHT30;64736;50.462;4.850;2022-12-11T03:12:24;1.12;85.06
76040;SHT30;64736;50.462;4.850;2022-12-11T03:14:52;1.12;84.63
76040;SHT30;64736;50.462;4.850;2022-12-11T03:25:25;0.97;86.68
76040;SHT30;64736;50.462;4.850;2022-12-11T03:30:40;1.40;84.31
76040;SHT30;64736;50.462;4.850;2022-12-11T03:33:14;1.12;86.20
76040;SHT30;64736;50.462;4.850;2022-12-11T03:35:55;1.35;85.25
76040;SHT30;64736;50.462;4.850;2022-12-11T03:38:47;1.25;84.35
76040;SHT30;64736;50.462;4.850;2022-12-11T03:41:16;1.46;84.54
76040;SHT30;64736;50.462;4.850;2022-12-11T03:43:43;1.31;84.53
76040;SHT30;64736;50.462;4.850;2022-12-11T03:46:10;0.61;87.11
76040;SHT30;64736;50.462;4.850;2022-12-11T03:48:39;0.97;85.70
76040;SHT30;64736;50.462;4.850;2022-12-11T03:51:07;0.45;88.17
76040;SHT30;64736;50.462;4.850;2022-12-11T03:53:34;0.35;88.74
76040;SHT30;64736;50.462;4.850;2022-12-11T03:56:02;0.77;88.05
76040;SHT30;64736;50.462;4.850;2022-12-11T03:58:28;1.39;84.82
76040;SHT30;64736;50.462;4.850;2022-12-11T04:00:54;1.47;84.24
76040;SHT30;64736;50.462;4.850;2022-12-11T04:03:20;1.49;83.86
76040;SHT30;64736;50.462;4.850;2022-12-11T04:05:51;1.42;84.25
76040;SHT30;64736;50.462;4.850;2022-12-11T04:08:18;1.36;84.44
76040;SHT30;64736;50.462;4.850;2022-12-11T04:10:48;1.39;83.72
76040;SHT30;64736;50.462;4.850;2022-12-11T04:13:38;1.22;83.96
76040;SHT30;64736;50.462;4.850;2022-12-11T04:16:04;1.26;84.75
76040;SHT30;64736;50.462;4.850;2022-12-11T04:18:30;1.36;84.13
76040;SHT30;64736;50.462;4.850;2022-12-11T04:21:14;1.43;84.42
76040;SHT30;64736;50.462;4.850;2022-12-11T04:23:59;1.26;84.26
76040;SHT30;64736;50.462;4.850;2022-12-11T04:26:44;0.89;84.83
76040;SHT30;64736;50.462;4.850;2022-12-11T04:29:10;1.24;84.65
76040;SHT30;64736;50.462;4.850;2022-12-11T04:31:36;1.25;84.49
76040;SHT30;64736;50.462;4.850;2022-12-11T04:34:02;1.19;84.50
76040;SHT30;64736;50.462;4.850;2022-12-11T04:36:28;1.25;84.27
76040;SHT30;64736;50.462;4.850;2022-12-11T04:38:53;1.24;84.21
76040;SHT30;64736;50.462;4.850;2022-12-11T04:41:19;1.22;83.99
76040;SHT30;64736;50.462;4.850;2022-12-11T04:43:45;1.12;84.43
76040;SHT30;64736;50.462;4.850;2022-12-11T04:46:15;1.18;84.40
76040;SHT30;64736;50.462;4.850;2022-12-11T04:48:43;1.26;84.48
76040;SHT30;64736;50.462;4.850;2022-12-11T04:51:09;1.26;83.86
76040;SHT30;64736;50.462;4.850;2022-12-11T04:53:35;1.29;84.03
76040;SHT30;64736;50.462;4.850;2022-12-11T04:56:08;1.19;84.25
76040;SHT30;64736;50.462;4.850;2022-12-11T04:58:35;1.01;85.13
76040;SHT30;64736;50.462;4.850;2022-12-11T05:01:10;1.16;83.81
76040;SHT30;64736;50.462;4.850;2022-12-11T05:03:36;0.99;84.21
76040;SHT30;64736;50.462;4.850;2022-12-11T05:06:02;1.08;84.35
76040;SHT30;64736;50.462;4.850;2022-12-11T05:08:28;1.12;83.61
76040;SHT30;64736;50.462;4.850;2022-12-11T05:10:56;0.98;83.72
76040;SHT30;64736;50.462;4.850;2022-12-11T05:13:22;0.87;84.21
76040;SHT30;64736;50.462;4.850;2022-12-11T05:15:48;0.89;84.15
76040;SHT30;64736;50.462;4.850;2022-12-11T05:18:14;0.95;84.27
76040;SHT30;64736;50.462;4.850;2022-12-11T05:20:39;0.97;84.13
76040;SHT30;64736;50.462;4.850;2022-12-11T05:23:05;0.94;84.15
76040;SHT30;64736;50.462;4.850;2022-12-11T05:25:31;0.97;84.39
76040;SHT30;64736;50.462;4.850;2022-12-11T05:27:57;0.98;84.20
76040;SHT30;64736;50.462;4.850;2022-12-11T05:30:23;0.97;84.35
76040;SHT30;64736;50.462;4.850;2022-12-11T05:32:48;1.01;84.55
76040;SHT30;64736;50.462;4.850;2022-12-11T05:35:14;1.02;84.55
76040;SHT30;64736;50.462;4.850;2022-12-11T05:37:40;1.05;84.63
76040;SHT30;64736;50.462;4.850;2022-12-11T05:40:06;1.19;83.64
76040;SHT30;64736;50.462;4.850;2022-12-11T05:42:32;1.22;83.76
76040;SHT30;64736;50.462;4.850;2022-12-11T05:44:58;0.95;83.69
76040;SHT30;64736;50.462;4.850;2022-12-11T05:47:24;1.05;84.26
76040;SHT30;64736;50.462;4.850;2022-12-11T05:49:50;1.02;84.99
76040;SHT30;64736;50.462;4.850;2022-12-11T05:52:16;1.11;83.63
76040;SHT30;64736;50.462;4.850;2022-12-11T05:54:42;1.15;83.73
76040;SHT30;64736;50.462;4.850;2022-12-11T05:57:08;0.94;84.12
76040;SHT30;64736;50.462;4.850;2022-12-11T05:59:33;1.08;83.88
76040;SHT30;64736;50.462;4.850;2022-12-11T06:01:59;0.70;84.60
76040;SHT30;64736;50.462;4.850;2022-12-11T06:04:25;0.88;84.87
76040;SHT30;64736;50.462;4.850;2022-12-11T06:06:53;1.09;83.34
76040;SHT30;64736;50.462;4.850;2022-12-11T06:09:19;0.88;83.88
76040;SHT30;64736;50.462;4.850;2022-12-11T06:11:45;0.92;84.32
76040;SHT30;64736;50.462;4.850;2022-12-11T06:14:11;0.57;84.41
76040;SHT30;64736;50.462;4.850;2022-12-11T06:16:37;0.59;86.28
76040;SHT30;64736;50.462;4.850;2022-12-11T06:19:03;0.94;83.89
76040;SHT30;64736;50.462;4.850;2022-12-11T06:21:30;0.80;84.02
76040;SHT30;64736;50.462;4.850;2022-12-11T06:23:58;0.77;85.94
76040;SHT30;64736;50.462;4.850;2022-12-11T06:26:24;0.85;85.84
76040;SHT30;64736;50.462;4.850;2022-12-11T06:28:50;0.89;84.20
76040;SHT30;64736;50.462;4.850;2022-12-11T06:31:16;0.64;86.09
76040;SHT30;64736;50.462;4.850;2022-12-11T06:33:42;1.19;83.35
76040;SHT30;64736;50.462;4.850;2022-12-11T06:36:15;1.14;83.10
76040;SHT30;64736;50.462;4.850;2022-12-11T06:38:42;1.14;83.31
76040;SHT30;64736;50.462;4.850;2022-12-11T06:41:08;1.08;83.81
76040;SHT30;64736;50.462;4.850;2022-12-11T06:43:35;0.60;85.17
76040;SHT30;64736;50.462;4.850;2022-12-11T06:46:16;0.57;85.08
76040;SHT30;64736;50.462;4.850;2022-12-11T06:48:42;0.88;84.03
76040;SHT30;64736;50.462;4.850;2022-12-11T06:51:10;1.09;83.65
76040;SHT30;64736;50.462;4.850;2022-12-11T06:53:37;0.97;83.53
76040;SHT30;64736;50.462;4.850;2022-12-11T06:56:09;0.91;83.94
76040;SHT30;64736;50.462;4.850;2022-12-11T06:58:36;0.83;84.47
76040;SHT30;64736;50.462;4.850;2022-12-11T07:01:03;0.85;84.33
76040;SHT30;64736;50.462;4.850;2022-12-11T07:03:29;0.57;86.03
76040;SHT30;64736;50.462;4.850;2022-12-11T07:06:00;0.61;85.83
76040;SHT30;64736;50.462;4.850;2022-12-11T07:08:27;0.92;84.94
76040;SHT30;64736;50.462;4.850;2022-12-11T07:10:53;1.14;83.94
76040;SHT30;64736;50.462;4.850;2022-12-11T07:13:19;1.31;83.37
76040;SHT30;64736;50.462;4.850;2022-12-11T07:15:45;1.29;82.94
76040;SHT30;64736;50.462;4.850;2022-12-11T07:18:11;0.52;85.02
76040;SHT30;64736;50.462;4.850;2022-12-11T07:20:36;0.83;85.08
76040;SHT30;64736;50.462;4.850;2022-12-11T07:23:02;1.02;84.93
76040;SHT30;64736;50.462;4.850;2022-12-11T07:25:28;1.15;83.50
76040;SHT30;64736;50.462;4.850;2022-12-11T07:27:54;1.07;84.21
76040;SHT30;64736;50.462;4.850;2022-12-11T07:30:19;0.99;84.25
76040;SHT30;64736;50.462;4.850;2022-12-11T07:32:45;1.15;84.48
76040;SHT30;64736;50.462;4.850;2022-12-11T07:35:11;1.24;83.97
76040;SHT30;64736;50.462;4.850;2022-12-11T07:37:40;0.73;84.51
76040;SHT30;64736;50.462;4.850;2022-12-11T07:40:06;1.16;84.14
76040;SHT30;64736;50.462;4.850;2022-12-11T07:42:32;1.09;83.42
76040;SHT30;64736;50.462;4.850;2022-12-11T07:44:58;1.26;83.30
76040;SHT30;64736;50.462;4.850;2022-12-11T07:47:23;1.28;83.43
76040;SHT30;64736;50.462;4.850;2022-12-11T07:49:49;1.09;83.91
76040;SHT30;64736;50.462;4.850;2022-12-11T07:52:15;0.99;84.07
76040;SHT30;64736;50.462;4.850;2022-12-11T07:54:41;1.16;84.11
76040;SHT30;64736;50.462;4.850;2022-12-11T07:57:06;1.14;84.39
76040;SHT30;64736;50.462;4.850;2022-12-11T07:59:32;1.19;83.09
76040;SHT30;64736;50.462;4.850;2022-12-11T08:01:58;1.19;83.71
76040;SHT30;64736;50.462;4.850;2022-12-11T08:04:23;1.07;82.93
76040;SHT30;64736;50.462;4.850;2022-12-11T08:06:49;1.14;83.60
76040;SHT30;64736;50.462;4.850;2022-12-11T08:09:15;1.21;82.95
76040;SHT30;64736;50.462;4.850;2022-12-11T08:11:40;1.18;82.89
76040;SHT30;64736;50.462;4.850;2022-12-11T08:14:06;1.18;82.99
76040;SHT30;64736;50.462;4.850;2022-12-11T08:16:33;1.14;83.13
76040;SHT30;64736;50.462;4.850;2022-12-11T08:18:58;1.14;83.18
76040;SHT30;64736;50.462;4.850;2022-12-11T08:21:26;1.16;82.66
76040;SHT30;64736;50.462;4.850;2022-12-11T08:23:53;1.19;83.08
76040;SHT30;64736;50.462;4.850;2022-12-11T08:26:22;0.95;83.52
76040;SHT30;64736;50.462;4.850;2022-12-11T08:28:48;1.32;82.83
76040;SHT30;64736;50.462;4.850;2022-12-11T08:31:15;1.39;82.02
76040;SHT30;64736;50.462;4.850;2022-12-11T08:33:42;1.38;81.64
76040;SHT30;64736;50.462;4.850;2022-12-11T08:36:14;1.36;81.90
76040;SHT30;64736;50.462;4.850;2022-12-11T08:38:41;1.29;82.09
76040;SHT30;64736;50.462;4.850;2022-12-11T08:41:31;1.40;82.06
76040;SHT30;64736;50.462;4.850;2022-12-11T08:43:57;0.74;83.96
76040;SHT30;64736;50.462;4.850;2022-12-11T08:46:27;1.32;82.99
76040;SHT30;64736;50.462;4.850;2022-12-11T08:48:53;1.57;81.19
76040;SHT30;64736;50.462;4.850;2022-12-11T08:51:21;1.09;83.66
76040;SHT30;64736;50.462;4.850;2022-12-11T08:53:47;0.74;84.33
76040;SHT30;64736;50.462;4.850;2022-12-11T08:56:15;1.16;82.92
76040;SHT30;64736;50.462;4.850;2022-12-11T08:58:42;0.66;84.71
76040;SHT30;64736;50.462;4.850;2022-12-11T09:01:15;0.77;84.92
76040;SHT30;64736;50.462;4.850;2022-12-11T09:03:42;1.26;83.26
76040;SHT30;64736;50.462;4.850;2022-12-11T09:06:10;1.67;80.93
76040;SHT30;64736;50.462;4.850;2022-12-11T09:08:37;1.64;80.75
76040;SHT30;64736;50.462;4.850;2022-12-11T09:11:14;1.47;82.45
76040;SHT30;64736;50.462;4.850;2022-12-11T09:13:42;1.12;82.20
76040;SHT30;64736;50.462;4.850;2022-12-11T09:16:10;1.59;81.45
76040;SHT30;64736;50.462;4.850;2022-12-11T09:18:37;1.46;81.59
76040;SHT30;64736;50.462;4.850;2022-12-11T09:21:06;1.70;80.58
76040;SHT30;64736;50.462;4.850;2022-12-11T09:23:32;1.80;80.99
76040;SHT30;64736;50.462;4.850;2022-12-11T09:25:58;1.85;80.17
76040;SHT30;64736;50.462;4.850;2022-12-11T09:28:23;1.77;80.67
76040;SHT30;64736;50.462;4.850;2022-12-11T09:30:50;1.68;79.91
76040;SHT30;64736;50.462;4.850;2022-12-11T09:33:16;1.91;80.22
76040;SHT30;64736;50.462;4.850;2022-12-11T09:35:41;1.93;80.37
76040;SHT30;64736;50.462;4.850;2022-12-11T09:38:07;2.01;80.08
76040;SHT30;64736;50.462;4.850;2022-12-11T09:40:39;2.10;79.54
76040;SHT30;64736;50.462;4.850;2022-12-11T09:46:03;1.85;80.42
76040;SHT30;64736;50.462;4.850;2022-12-11T09:48:32;1.85;80.41
76040;SHT30;64736;50.462;4.850;2022-12-11T09:50:58;2.21;78.74
76040;SHT30;64736;50.462;4.850;2022-12-11T09:53:29;1.85;79.17
76040;SHT30;64736;50.462;4.850;2022-12-11T09:56:21;2.31;78.74
76040;SHT30;64736;50.462;4.850;2022-12-11T10:17:43;1.80;79.45
76040;SHT30;64736;50.462;4.850;2022-12-11T10:20:30;1.67;79.63
76040;SHT30;64736;50.462;4.850;2022-12-11T10:23:02;2.14;78.12
76040;SHT30;64736;50.462;4.850;2022-12-11T10:25:31;2.18;78.22
76040;SHT30;64736;50.462;4.850;2022-12-11T10:28:09;2.25;78.18
76040;SHT30;64736;50.462;4.850;2022-12-11T10:30:40;1.74;79.49
76040;SHT30;64736;50.462;4.850;2022-12-11T10:33:26;2.00;78.99
76040;SHT30;64736;50.462;4.850;2022-12-11T10:35:56;2.08;78.52
76040;SHT30;64736;50.462;4.850;2022-12-11T10:38:31;2.15;78.59
76040;SHT30;64736;50.462;4.850;2022-12-11T10:41:04;1.52;79.26
76040;SHT30;64736;50.462;4.850;2022-12-11T10:43:40;2.29;78.52
76040;SHT30;64736;50.462;4.850;2022-12-11T10:46:20;1.26;81.17
76040;SHT30;64736;50.462;4.850;2022-12-11T10:48:49;1.31;81.68
76040;SHT30;64736;50.462;4.850;2022-12-11T10:51:20;2.46;78.18
76040;SHT30;64736;50.462;4.850;2022-12-11T10:53:54;2.57;77.22
76040;SHT30;64736;50.462;4.850;2022-12-11T10:56:26;3.43;73.02
76040;SHT30;64736;50.462;4.850;2022-12-11T10:58:55;4.11;71.71
76040;SHT30;64736;50.462;4.850;2022-12-11T11:01:23;5.72;65.29
76040;SHT30;64736;50.462;4.850;2022-12-11T11:04:01;5.85;64.58
76040;SHT30;64736;50.462;4.850;2022-12-11T11:06:28;6.65;61.73
76040;SHT30;64736;50.462;4.850;2022-12-11T11:08:56;6.58;60.62
76040;SHT30;64736;50.462;4.850;2022-12-11T11:11:38;6.03;63.36
76040;SHT30;64736;50.462;4.850;2022-12-11T11:16:30;8.23;55.87
76040;SHT30;64736;50.462;4.850;2022-12-11T11:18:56;9.08;53.29
76040;SHT30;64736;50.462;4.850;2022-12-11T11:21:24;8.84;52.59
76040;SHT30;64736;50.462;4.850;2022-12-11T11:23:52;8.80;53.15
76040;SHT30;64736;50.462;4.850;2022-12-11T11:26:19;9.29;52.52
76040;SHT30;64736;50.462;4.850;2022-12-11T11:28:52;8.80;54.14
76040;SHT30;64736;50.462;4.850;2022-12-11T11:31:20;9.53;51.23
76040;SHT30;64736;50.462;4.850;2022-12-11T11:34:00;9.14;52.03
76040;SHT30;64736;50.462;4.850;2022-12-11T11:36:31;10.12;48.54
76040;SHT30;64736;50.462;4.850;2022-12-11T11:39:25;9.77;49.77
76040;SHT30;64736;50.462;4.850;2022-12-11T11:45:08;8.46;52.27
76040;SHT30;64736;50.462;4.850;2022-12-11T11:47:47;7.46;56.48
76040;SHT30;64736;50.462;4.850;2022-12-11T11:50:19;8.70;52.60
76040;SHT30;64736;50.462;4.850;2022-12-11T11:53:39;8.81;51.84
76040;SHT30;64736;50.462;4.850;2022-12-11T11:59:27;7.72;54.38
76040;SHT30;64736;50.462;4.850;2022-12-11T12:01:44;6.41;58.20
76040;SHT30;64736;50.462;4.850;2022-12-11T12:04:10;5.72;61.29
76040;SHT30;64736;50.462;4.850;2022-12-11T12:07:41;5.62;61.48
76040;SHT30;64736;50.462;4.850;2022-12-11T12:15:38;5.66;61.37
76040;SHT30;64736;50.462;4.850;2022-12-11T12:17:58;7.33;56.09
76040;SHT30;64736;50.462;4.850;2022-12-11T12:20:29;7.68;54.01
76040;SHT30;64736;50.462;4.850;2022-12-11T12:26:26;6.06;59.64
76040;SHT30;64736;50.462;4.850;2022-12-11T12:48:38;5.82;60.05
76040;SHT30;64736;50.462;4.850;2022-12-11T12:51:05;5.58;61.19
76040;SHT30;64736;50.462;4.850;2022-12-11T12:53:33;5.30;61.88
76040;SHT30;64736;50.462;4.850;2022-12-11T12:56:02;5.48;61.98
76040;SHT30;64736;50.462;4.850;2022-12-11T13:01:13;5.35;61.35
76040;SHT30;64736;50.462;4.850;2022-12-11T13:03:59;5.00;62.46
76040;SHT30;64736;50.462;4.850;2022-12-11T13:06:42;4.72;63.65
76040;SHT30;64736;50.462;4.850;2022-12-11T13:09:21;4.83;64.21
76040;SHT30;64736;50.462;4.850;2022-12-11T13:11:54;4.61;64.20
76040;SHT30;64736;50.462;4.850;2022-12-11T13:14:23;4.40;65.04
76040;SHT30;64736;50.462;4.850;2022-12-11T13:17:06;4.45;65.17
76040;SHT30;64736;50.462;4.850;2022-12-11T13:19:33;4.68;64.49
76040;SHT30;64736;50.462;4.850;2022-12-11T13:22:20;4.93;64.36
76040;SHT30;64736;50.462;4.850;2022-12-11T13:25:01;4.97;64.38
76040;SHT30;64736;50.462;4.850;2022-12-11T13:27:41;5.27;64.09
76040;SHT30;64736;50.462;4.850;2022-12-11T13:32:53;5.28;62.70
76040;SHT30;64736;50.462;4.850;2022-12-11T13:35:20;5.48;62.57
76040;SHT30;64736;50.462;4.850;2022-12-11T13:37:48;6.28;61.02
76040;SHT30;64736;50.462;4.850;2022-12-11T13:40:21;7.02;56.79
76040;SHT30;64736;50.462;4.850;2022-12-11T13:42:59;7.81;54.13
76040;SHT30;64736;50.462;4.850;2022-12-11T13:45:47;7.22;55.07
76040;SHT30;64736;50.462;4.850;2022-12-11T13:48:26;7.19;55.33
76040;SHT30;64736;50.462;4.850;2022-12-11T13:50:53;6.54;57.88
76040;SHT30;64736;50.462;4.850;2022-12-11T13:53:21;5.93;60.32
76040;SHT30;64736;50.462;4.850;2022-12-11T13:56:00;5.59;61.04
76040;SHT30;64736;50.462;4.850;2022-12-11T13:58:27;5.32;61.87
76040;SHT30;64736;50.462;4.850;2022-12-11T14:03:33;5.24;62.38
76040;SHT30;64736;50.462;4.850;2022-12-11T14:06:00;5.16;62.58
76040;SHT30;64736;50.462;4.850;2022-12-11T14:08:33;5.10;61.95
76040;SHT30;64736;50.462;4.850;2022-12-11T14:10:59;4.76;62.38
76040;SHT30;64736;50.462;4.850;2022-12-11T14:13:32;4.72;62.89
76040;SHT30;64736;50.462;4.850;2022-12-11T14:15:59;4.77;62.26
76040;SHT30;64736;50.462;4.850;2022-12-11T14:18:28;4.80;62.96
76040;SHT30;64736;50.462;4.850;2022-12-11T14:20:56;4.90;62.83
76040;SHT30;64736;50.462;4.850;2022-12-11T14:23:27;4.62;62.97
76040;SHT30;64736;50.462;4.850;2022-12-11T14:28:25;4.46;63.98
76040;SHT30;64736;50.462;4.850;2022-12-11T14:30:54;4.42;64.04
76040;SHT30;64736;50.462;4.850;2022-12-11T14:33:24;4.59;63.70
76040;SHT30;64736;50.462;4.850;2022-12-11T14:35:53;4.22;64.58
76040;SHT30;64736;50.462;4.850;2022-12-11T14:38:24;4.48;64.32
76040;SHT30;64736;50.462;4.850;2022-12-11T14:40:58;4.41;64.49
76040;SHT30;64736;50.462;4.850;2022-12-11T14:43:31;4.48;64.10
76040;SHT30;64736;50.462;4.850;2022-12-11T14:46:00;4.62;64.35
76040;SHT30;64736;50.462;4.850;2022-12-11T14:48:34;4.61;64.70
76040;SHT30;64736;50.462;4.850;2022-12-11T14:51:04;4.41;65.09
76040;SHT30;64736;50.462;4.850;2022-12-11T14:53:35;4.35;65.51
76040;SHT30;64736;50.462;4.850;2022-12-11T14:56:05;4.21;65.52
76040;SHT30;64736;50.462;4.850;2022-12-11T14:58:32;3.94;66.52
76040;SHT30;64736;50.462;4.850;2022-12-11T15:01:19;3.97;66.42
76040;SHT30;64736;50.462;4.850;2022-12-11T15:03:45;3.86;67.65
76040;SHT30;64736;50.462;4.850;2022-12-11T15:06:31;4.07;66.89
76040;SHT30;64736;50.462;4.850;2022-12-11T15:09:17;3.89;67.41
76040;SHT30;64736;50.462;4.850;2022-12-11T15:11:43;3.86;67.59
76040;SHT30;64736;50.462;4.850;2022-12-11T15:14:10;3.69;67.94
76040;SHT30;64736;50.462;4.850;2022-12-11T15:16:39;3.52;68.68
76040;SHT30;64736;50.462;4.850;2022-12-11T15:19:05;3.58;69.63
76040;SHT30;64736;50.462;4.850;2022-12-11T15:21:33;3.58;68.80
76040;SHT30;64736;50.462;4.850;2022-12-11T15:24:01;3.38;69.58
76040;SHT30;64736;50.462;4.850;2022-12-11T15:26:45;3.25;69.98
76040;SHT30;64736;50.462;4.850;2022-12-11T15:29:30;3.27;70.31
76040;SHT30;64736;50.462;4.850;2022-12-11T15:32:16;3.15;70.63
76040;SHT30;64736;50.462;4.850;2022-12-11T15:34:51;3.04;71.05
76040;SHT30;64736;50.462;4.850;2022-12-11T15:37:22;3.03;70.74
76040;SHT30;64736;50.462;4.850;2022-12-11T15:39:48;2.76;72.04
76040;SHT30;64736;50.462;4.850;2022-12-11T15:42:24;2.87;71.40
76040;SHT30;64736;50.462;4.850;2022-12-11T15:44:50;2.81;71.94
76040;SHT30;64736;50.462;4.850;2022-12-11T15:47:22;2.87;71.56
76040;SHT30;64736;50.462;4.850;2022-12-11T15:49:48;2.20;74.60
76040;SHT30;64736;50.462;4.850;2022-12-11T15:52:14;2.69;72.47
76040;SHT30;64736;50.462;4.850;2022-12-11T15:54:40;2.42;74.10
76040;SHT30;64736;50.462;4.850;2022-12-11T15:57:08;2.56;73.13
76040;SHT30;64736;50.462;4.850;2022-12-11T15:59:36;2.35;74.15
76040;SHT30;64736;50.462;4.850;2022-12-11T16:02:01;2.66;72.95
76040;SHT30;64736;50.462;4.850;2022-12-11T16:04:27;2.42;72.80
76040;SHT30;64736;50.462;4.850;2022-12-11T16:06:52;2.18;74.25
76040;SHT30;64736;50.462;4.850;2022-12-11T16:09:19;2.00;75.43
76040;SHT30;64736;50.462;4.850;2022-12-11T16:11:44;1.80;76.66
76040;SHT30;64736;50.462;4.850;2022-12-11T16:14:10;1.59;76.93
76040;SHT30;64736;50.462;4.850;2022-12-11T16:16:35;1.38;77.12
76040;SHT30;64736;50.462;4.850;2022-12-11T16:19:01;1.74;77.11
76040;SHT30;64736;50.462;4.850;2022-12-11T16:21:26;1.93;75.62
76040;SHT30;64736;50.462;4.850;2022-12-11T16:23:52;2.03;76.35
76040;SHT30;64736;50.462;4.850;2022-12-11T16:26:17;1.94;76.66
76040;SHT30;64736;50.462;4.850;2022-12-11T16:28:43;1.63;76.92
76040;SHT30;64736;50.462;4.850;2022-12-11T16:31:12;1.93;75.55
76040;SHT30;64736;50.462;4.850;2022-12-11T16:33:38;2.05;76.19
76040;SHT30;64736;50.462;4.850;2022-12-11T16:36:12;2.11;75.04
76040;SHT30;64736;50.462;4.850;2022-12-11T16:38:38;1.85;75.93
76040;SHT30;64736;50.462;4.850;2022-12-11T16:41:04;1.38;77.72
76040;SHT30;64736;50.462;4.850;2022-12-11T16:43:31;1.94;76.05
76040;SHT30;64736;50.462;4.850;2022-12-11T16:45:57;1.55;77.49
76040;SHT30;64736;50.462;4.850;2022-12-11T16:48:23;1.55;76.75
76040;SHT30;64736;50.462;4.850;2022-12-11T16:50:52;1.77;76.57
76040;SHT30;64736;50.462;4.850;2022-12-11T16:53:18;1.71;76.15
76040;SHT30;64736;50.462;4.850;2022-12-11T16:55:44;1.67;76.79
76040;SHT30;64736;50.462;4.850;2022-12-11T16:58:10;1.50;77.63
76040;SHT30;64736;50.462;4.850;2022-12-11T17:00:40;1.81;75.76
76040;SHT30;64736;50.462;4.850;2022-12-11T17:03:06;1.35;76.43
76040;SHT30;64736;50.462;4.850;2022-12-11T17:05:32;1.28;79.04
76040;SHT30;64736;50.462;4.850;2022-12-11T17:07:57;1.60;77.05
76040;SHT30;64736;50.462;4.850;2022-12-11T17:10:23;1.40;77.84
76040;SHT30;64736;50.462;4.850;2022-12-11T17:12:48;1.60;77.04
76040;SHT30;64736;50.462;4.850;2022-12-11T17:15:14;0.78;79.47
76040;SHT30;64736;50.462;4.850;2022-12-11T17:17:40;0.73;80.56
76040;SHT30;64736;50.462;4.850;2022-12-11T17:20:09;0.54;80.63
76040;SHT30;64736;50.462;4.850;2022-12-11T17:22:35;0.73;80.62
76040;SHT30;64736;50.462;4.850;2022-12-11T17:25:00;1.07;79.77
76040;SHT30;64736;50.462;4.850;2022-12-11T17:27:26;1.09;79.64
76040;SHT30;64736;50.462;4.850;2022-12-11T17:29:52;1.46;78.01
76040;SHT30;64736;50.462;4.850;2022-12-11T17:32:17;1.35;78.57
76040;SHT30;64736;50.462;4.850;2022-12-11T17:34:44;1.01;80.40